Time;durP1;ratioP1;P1;durP2;ratioP2;P2;SDS_P1;SDS_P2;PMS_P1;PMS_P2;Temp;Humidity;BMP_temperature;BMP_pressure;BME280_temperature;BME280_humidity;BME280_pressure;Samples;Min_cycle;Max_cycle;Signal;HPM_P1;HPM_P2
2021/11/22 00:01:04;;;;;;;;;15.25;7.75;;;;;9.13;69.09;101463.56;5017826;28;54538;-78
2021/11/22 00:03:30;;;;;;;;;12.75;5.50;;;;;9.15;69.01;101459.22;4999788;28;47883;-78
2021/11/22 00:05:58;;;;;;;;;9.25;6.00;;;;;9.15;69.06;101464.50;4999852;28;45332;-79
2021/11/22 00:08:30;;;;;;;;;8.00;6.00;;;;;9.06;68.87;101446.72;5017802;28;45529;-78
2021/11/22 00:10:55;;;;;;;;;10.75;6.00;;;;;9.13;69.09;101463.56;5017342;28;45480;-78
2021/11/22 00:13:20;;;;;;;;;11.00;4.50;;;;;9.12;68.93;101481.13;5017658;28;47252;-78
2021/11/22 00:15:55;;;;;;;;;9.00;4.67;;;;;9.11;69.02;101471.44;5016670;28;67085;-78
2021/11/22 00:18:24;;;;;;;;;11.00;6.00;;;;;9.10;69.10;101474.00;5042089;28;45350;-77
2021/11/22 00:20:49;;;;;;;;;11.75;5.50;;;;;9.08;68.78;101479.25;5017240;28;45491;-78
2021/11/22 00:23:15;;;;;;;;;11.75;6.75;;;;;9.02;69.03;101451.84;5017362;28;46715;-78
2021/11/22 00:25:49;;;;;;;;;7.00;4.75;;;;;9.07;68.80;101466.94;5016589;28;45314;-77
2021/11/22 00:28:15;;;;;;;;;7.50;4.25;;;;;9.05;69.17;101468.59;5016296;28;49613;-78
2021/11/22 00:30:40;;;;;;;;;7.50;5.50;;;;;9.06;68.87;101467.78;5018192;28;45568;-78
2021/11/22 00:33:10;;;;;;;;;12.00;5.00;;;;;9.05;68.99;101475.63;5017718;28;47210;-78
2021/11/22 00:35:36;;;;;;;;;9.50;6.25;;;;;9.04;68.72;101465.94;5017599;28;45438;-78
2021/11/22 00:38:04;;;;;;;;;7.00;4.00;;;;;9.04;68.93;101485.28;5018230;28;45302;-79
2021/11/22 00:40:56;;;;;;;;;6.00;4.50;;;;;9.03;68.85;101472.06;5013964;28;45412;-79
2021/11/22 00:43:24;;;;;;;;;9.00;7.00;;;;;9.02;68.76;101463.28;5016871;28;46322;-79
2021/11/22 00:45:53;;;;;;;;;10.75;7.00;;;;;8.95;68.83;101466.59;5002257;28;45560;-79
2021/11/22 00:48:21;;;;;;;;;7.50;5.50;;;;;8.99;69.04;101480.72;5017896;28;53486;-78
2021/11/22 00:51:41;;;;;;;;;;;;;;;;;;;;;
2021/11/22 00:54:07;;;;;;;;;6.50;6.00;;;;;8.96;68.79;101472.75;5000280;28;73581;-79
2021/11/22 00:56:35;;;;;;;;;3.75;3.75;;;;;8.93;68.69;101481.44;5015605;28;45240;-79
2021/11/22 00:59:01;;;;;;;;;6.75;4.25;;;;;8.92;68.53;101484.94;5016677;28;46454;-78
2021/11/22 01:01:26;;;;;;;;;12.50;6.00;;;;;8.88;68.83;101478.69;5016947;28;52833;-78
2021/11/22 01:03:51;;;;;;;;;5.50;4.25;;;;;8.90;68.90;101491.91;5017427;28;46678;-78
2021/11/22 01:06:20;;;;;;;;;11.00;4.00;;;;;8.88;68.82;101478.69;5016446;28;60126;-78
2021/11/22 01:08:48;;;;;;;;;8.00;3.67;;;;;8.91;68.90;101491.06;5017032;28;62735;-79
2021/11/22 01:11:52;;;;;;;;;6.00;3.00;;;;;8.89;68.60;101482.22;5016263;28;55141;-79
2021/11/22 01:14:21;;;;;;;;;11.50;4.75;;;;;8.89;68.76;101501.56;5014777;28;46455;-79
2021/11/22 01:16:49;;;;;;;;;6.50;5.75;;;;;8.89;68.77;101506.84;5022841;28;63935;-79
2021/11/22 01:19:51;;;;;;;;;11.75;6.50;;;;;8.89;68.73;101519.06;5036622;28;45227;-78
2021/11/22 01:22:17;;;;;;;;;7.75;3.00;;;;;8.88;68.76;101514.66;5034841;28;45460;-78
2021/11/22 01:24:45;;;;;;;;;8.00;5.00;;;;;8.89;68.45;101519.06;5041062;28;47161;-79
2021/11/22 01:27:13;;;;;;;;;7.25;5.25;;;;;8.86;68.68;101506.72;5036097;28;45434;-79
2021/11/22 01:29:38;;;;;;;;;5.75;4.25;;;;;8.87;68.71;101507.63;5043368;28;45563;-78
2021/11/22 01:32:04;;;;;;;;;7.75;4.25;;;;;8.88;68.54;101515.56;5035374;28;58986;-78
2021/11/22 01:34:33;;;;;;;;;5.75;3.00;;;;;8.86;68.46;101521.63;5035457;28;47500;-78
2021/11/22 01:36:58;;;;;;;;;9.50;6.00;;;;;8.86;68.74;101519.91;5036078;28;45343;-79
2021/11/22 01:39:23;;;;;;;;;6.00;6.00;;;;;8.83;68.48;101505.72;5035302;28;61825;-78
2021/11/22 01:41:49;;;;;;;;;7.00;4.25;;;;;8.86;68.26;101525.16;5036458;28;45263;-78
2021/11/22 01:44:17;;;;;;;;;3.25;3.25;;;;;8.85;67.89;101523.38;5036015;28;45470;-78
2021/11/22 01:46:49;;;;;;;;;7.75;3.75;;;;;8.79;68.43;101515.31;5036062;28;45245;-78
2021/11/22 01:49:18;;;;;;;;;10.50;4.25;;;;;8.82;68.21;101523.28;5024310;28;45542;-78
2021/11/22 01:51:43;;;;;;;;;3.00;3.00;;;;;8.82;68.30;101517.13;5035591;28;45536;-78
2021/11/22 01:54:09;;;;;;;;;6.25;4.50;;;;;8.77;68.26;101519.63;5035160;28;61244;-78
2021/11/22 01:56:34;;;;;;;;;9.25;6.00;;;;;8.76;68.19;101512.56;5036407;28;45575;-78
2021/11/22 01:59:06;;;;;;;;;7.00;5.00;;;;;8.79;68.31;101525.84;5043010;28;45350;-78
2021/11/22 02:01:34;;;;;;;;;6.00;5.00;;;;;8.80;68.42;101530.25;5036228;28;45302;-78
2021/11/22 02:04:03;;;;;;;;;5.25;4.25;;;;;8.82;68.25;101535.56;5018393;28;48233;-78
2021/11/22 02:06:28;;;;;;;;;8.25;2.75;;;;;8.79;68.22;101546.91;5036310;28;45528;-78
2021/11/22 02:08:53;;;;;;;;;11.25;5.25;;;;;8.80;68.38;101532.00;5035815;28;59920;-78
2021/11/22 02:11:19;;;;;;;;;7.75;6.00;;;;;8.79;67.98;101546.91;5036049;28;45430;-78
2021/11/22 02:13:47;;;;;;;;;6.25;4.25;;;;;8.78;68.09;101550.34;5016900;28;62977;-78
2021/11/22 02:16:15;;;;;;;;;6.00;3.25;;;;;8.78;68.14;101553.00;5013028;28;45335;-78
2021/11/22 02:18:42;;;;;;;;;7.25;5.50;;;;;8.70;67.69;101541.34;5015610;28;56532;-79
2021/11/22 02:21:08;;;;;;;;;8.00;3.75;;;;;8.73;68.03;101557.22;5015818;28;45532;-79
2021/11/22 02:23:34;;;;;;;;;6.50;5.00;;;;;8.72;67.93;101552.81;5015220;28;47429;-78
2021/11/22 02:26:00;;;;;;;;;6.25;6.25;;;;;8.70;68.02;101558.91;5016050;28;45346;-78
2021/11/22 02:28:25;;;;;;;;;8.00;6.25;;;;;8.72;68.17;101559.81;5029782;28;64068;-78
2021/11/22 02:30:51;;;;;;;;;6.75;5.50;;;;;8.70;67.99;101559.78;5015948;28;45528;-78
2021/11/22 02:33:18;;;;;;;;;6.25;5.00;;;;;8.71;67.98;101563.31;5015046;28;46569;-79
2021/11/22 02:35:55;;;;;;;;;7.00;6.00;;;;;8.64;67.88;101559.59;5015576;28;45531;-79
2021/11/22 02:38:22;;;;;;;;;5.75;5.75;;;;;8.68;68.20;101560.56;4983055;28;45362;-80
2021/11/22 02:40:51;;;;;;;;;6.75;4.25;;;;;8.63;68.00;101547.31;5016153;28;45361;-78
2021/11/22 02:43:19;;;;;;;;;9.25;5.50;;;;;8.65;67.86;101572.81;4997614;28;46784;-79
2021/11/22 02:45:44;;;;;;;;;12.50;5.25;;;;;8.63;68.09;101558.72;5018381;28;62888;-78
2021/11/22 02:48:10;;;;;;;;;9.50;3.00;;;;;8.63;67.88;101557.81;5019433;28;45803;-79
2021/11/22 02:50:35;;;;;;;;;6.00;4.25;;;;;8.60;68.10;101560.34;5018825;28;52724;-78
2021/11/22 02:53:04;;;;;;;;;6.33;6.00;;;;;8.58;67.98;101547.16;5017955;28;53686;-79
2021/11/22 02:55:32;;;;;;;;;11.75;5.75;;;;;8.57;68.15;101561.13;5018491;28;45307;-79
2021/11/22 02:57:58;;;;;;;;;7.25;4.50;;;;;8.57;67.99;101566.41;5000663;28;59392;-79
2021/11/22 03:00:28;;;;;;;;;6.00;5.25;;;;;8.57;68.15;101574.28;5019001;28;45525;-79
2021/11/22 03:02:56;;;;;;;;;14.50;7.00;;;;;8.57;68.10;101578.66;5018868;28;46480;-78
2021/11/22 03:05:22;;;;;;;;;7.75;5.00;;;;;8.55;67.93;101581.25;5019324;28;45740;-79
2021/11/22 03:07:49;;;;;;;;;6.00;2.00;;;;;8.55;68.02;101573.38;5018677;28;45469;-78
2021/11/22 03:10:16;;;;;;;;;4.00;3.50;;;;;8.48;67.78;101563.50;5001674;28;46384;-78
2021/11/22 03:12:45;;;;;;;;;10.00;4.00;;;;;8.52;68.04;101575.91;5018882;28;47290;-78
2021/11/22 03:15:15;;;;;;;;;8.50;3.75;;;;;8.49;67.95;101583.72;5019739;28;45314;-79
2021/11/22 03:17:41;;;;;;;;;10.33;5.33;;;;;8.46;68.11;101569.56;5046001;28;45393;-78
2021/11/22 03:20:11;;;;;;;;;6.50;6.50;;;;;8.49;68.16;101573.19;5038559;28;45585;-78
2021/11/22 03:22:37;;;;;;;;;11.75;6.75;;;;;8.50;67.79;101592.50;5028606;28;47439;-78
2021/11/22 03:25:04;;;;;;;;;7.25;5.75;;;;;8.47;67.81;101589.75;5037820;28;67591;-78
2021/11/22 03:27:30;;;;;;;;;12.00;7.25;;;;;8.46;68.11;101586.22;5037697;28;45294;-79
2021/11/22 03:29:55;;;;;;;;;12.25;4.75;;;;;8.45;68.02;101579.19;5038540;28;45492;-78
2021/11/22 03:32:20;;;;;;;;;6.50;4.75;;;;;8.44;67.84;101589.69;5037321;28;63653;-78
2021/11/22 03:34:46;;;;;;;;;9.25;5.75;;;;;8.41;68.16;101587.81;5002735;28;60872;-79
2021/11/22 03:37:11;;;;;;;;;6.50;3.75;;;;;8.41;68.00;101587.81;5038855;28;45354;-78
2021/11/22 03:39:37;;;;;;;;;8.50;6.00;;;;;8.42;68.06;101599.28;5039132;28;45384;-77
2021/11/22 03:42:06;;;;;;;;;8.50;6.00;;;;;8.40;68.22;101602.72;5037977;28;46640;-79
2021/11/22 03:44:33;;;;;;;;;8.75;7.00;;;;;8.41;67.99;101606.25;5038170;28;45509;-78
2021/11/22 03:46:58;;;;;;;;;5.25;3.75;;;;;8.41;68.07;101606.25;5031111;28;45228;-78
2021/11/22 03:49:24;;;;;;;;;12.75;6.25;;;;;8.36;68.12;101603.50;5039224;28;45466;-78
2021/11/22 03:51:52;;;;;;;;;8.00;5.25;;;;;8.40;68.15;101626.41;5020085;28;46475;-79
2021/11/22 03:54:18;;;;;;;;;9.00;6.00;;;;;8.38;67.86;101622.84;5037017;28;45509;-78
2021/11/22 03:56:43;;;;;;;;;8.75;6.75;;;;;8.35;68.03;101614.81;5019912;28;45462;-79
2021/11/22 03:59:09;;;;;;;;;6.00;6.00;;;;;8.39;68.10;101636.88;5038269;28;45547;-79
2021/11/22 04:01:35;;;;;;;;;6.50;6.00;;;;;8.36;67.61;101627.19;5037948;28;47224;-78
2021/11/22 04:04:00;;;;;;;;;12.00;6.00;;;;;8.31;67.72;101628.72;5037049;28;45489;-79
2021/11/22 04:06:28;;;;;;;;;10.25;8.25;;;;;8.36;68.13;101624.53;5038197;28;45474;-78
2021/11/22 04:08:56;;;;;;;;;11.00;6.75;;;;;8.36;68.07;101621.00;5038446;28;45461;-78
2021/11/22 04:11:22;;;;;;;;;13.75;9.00;;;;;8.35;67.80;101630.59;5038432;28;46762;-79
2021/11/22 04:13:51;;;;;;;;;7.00;6.75;;;;;8.34;67.96;101634.06;5036750;28;68633;-78
2021/11/22 04:16:17;;;;;;;;;7.25;6.00;;;;;8.30;67.98;101637.44;5019344;28;45590;-78
2021/11/22 04:18:43;;;;;;;;;7.25;5.00;;;;;8.33;67.97;101642.81;5019503;28;45418;-79
2021/11/22 04:21:09;;;;;;;;;6.50;5.75;;;;;8.32;67.79;101648.03;5036621;28;45936;-78
2021/11/22 04:23:35;;;;;;;;;5.00;5.00;;;;;8.31;68.11;101649.78;5037119;28;45524;-79
2021/11/22 04:26:08;;;;;;;;;5.50;5.50;;;;;8.31;67.83;101648.84;5035829;28;45470;-79
2021/11/22 04:28:33;;;;;;;;;11.50;7.00;;;;;8.31;67.90;101649.78;5037545;28;45519;-78
2021/11/22 04:31:16;;;;;;;;;7.50;5.50;;;;;8.30;67.84;101653.22;5037236;28;47868;-78
2021/11/22 04:33:45;;;;;;;;;11.00;6.00;;;;;8.32;67.80;101645.41;5037301;28;45290;-78
2021/11/22 04:36:12;;;;;;;;;6.50;5.00;;;;;8.32;67.80;101655.94;5036880;28;56927;-78
2021/11/22 04:38:41;;;;;;;;;11.50;6.25;;;;;8.29;67.83;101658.44;5037207;28;45524;-79
2021/11/22 04:41:08;;;;;;;;;10.50;6.25;;;;;8.30;67.80;101668.13;5020604;28;47556;-77
2021/11/22 04:43:34;;;;;;;;;9.25;6.75;;;;;8.30;67.93;101674.28;5037914;28;45468;-79
2021/11/22 04:46:02;;;;;;;;;9.50;6.00;;;;;8.28;67.96;101670.72;5036628;28;45369;-79
2021/11/22 04:48:33;;;;;;;;;11.50;7.00;;;;;8.29;68.05;101674.22;5037099;28;45569;-78
2021/11/22 04:50:58;;;;;;;;;9.75;7.00;;;;;8.31;68.00;101678.72;5036316;28;47390;-79
2021/11/22 04:53:26;;;;;;;;;11.00;7.00;;;;;8.31;68.04;101685.69;5036711;28;63903;-78
2021/11/22 04:55:55;;;;;;;;;8.50;7.00;;;;;8.31;67.87;101694.50;5036288;28;60029;-78
2021/11/22 04:58:26;;;;;;;;;13.50;8.00;;;;;8.33;68.03;101692.81;5036893;28;45239;-78
2021/11/22 05:00:54;;;;;;;;;7.75;7.75;;;;;8.33;68.09;101695.44;5036706;28;46303;-77
2021/11/22 05:03:22;;;;;;;;;10.00;7.00;;;;;8.33;68.02;101689.28;5036395;28;61696;-78
2021/11/22 05:05:51;;;;;;;;;9.75;8.00;;;;;8.32;67.73;101698.91;5035994;28;60525;-79
2021/11/22 05:08:16;;;;;;;;;11.00;8.75;;;;;8.32;67.84;101696.28;5036940;28;45513;-78
2021/11/22 05:10:43;;;;;;;;;12.50;6.75;;;;;8.27;68.00;101694.34;5036390;28;46503;-78
2021/11/22 05:13:10;;;;;;;;;11.50;8.00;;;;;8.26;68.11;101695.19;5037122;28;46505;-78
2021/11/22 05:15:36;;;;;;;;;11.00;6.50;;;;;8.27;68.00;101702.25;5138465;22;45654;-78
2021/11/22 05:18:01;;;;;;;;;7.75;6.00;;;;;8.28;67.83;101712.81;5020669;22;47446;-78
2021/11/22 05:20:29;;;;;;;;;10.75;8.75;;;;;8.21;68.06;101697.66;5017141;28;46555;-78
2021/11/22 05:22:55;;;;;;;;;9.25;6.75;;;;;8.23;68.12;101714.38;5021232;28;45524;-78
2021/11/22 05:25:20;;;;;;;;;7.00;7.00;;;;;8.24;68.08;101713.53;5017481;28;45340;-78
2021/11/22 05:27:46;;;;;;;;;8.00;5.50;;;;;8.23;68.00;101724.91;5015984;28;56610;-78
2021/11/22 05:30:12;;;;;;;;;10.00;6.00;;;;;8.22;67.96;101723.13;5015949;28;65470;-78
2021/11/22 05:32:38;;;;;;;;;9.75;7.00;;;;;8.22;67.99;101724.84;5016891;28;45593;-78
2021/11/22 05:35:03;;;;;;;;;16.75;10.75;;;;;8.20;67.97;101729.16;5010823;28;54817;-78
2021/11/22 05:37:31;;;;;;;;;10.25;10.25;;;;;8.17;68.25;101735.22;5016982;28;45620;-78
2021/11/22 05:39:56;;;;;;;;;16.00;8.00;;;;;8.19;68.27;101740.53;5016236;28;46769;-78
2021/11/22 05:42:21;;;;;;;;;11.00;7.00;;;;;8.18;68.29;101737.00;5016523;28;45533;-78
2021/11/22 05:44:47;;;;;;;;;7.50;4.00;;;;;8.20;68.15;101744.94;5016864;28;45401;-79
2021/11/22 05:47:12;;;;;;;;;16.25;9.50;;;;;8.20;68.28;101752.81;5016098;28;60246;-78
2021/11/22 05:49:38;;;;;;;;;12.50;10.00;;;;;8.15;68.21;101747.44;5016428;28;46202;-78
2021/11/22 05:52:04;;;;;;;;;17.25;11.50;;;;;8.12;68.55;101736.78;5016037;28;45259;-78
2021/11/22 05:54:32;;;;;;;;;14.75;12.25;;;;;8.22;68.21;101753.78;5011564;28;45340;-78
2021/11/22 05:56:58;;;;;;;;;10.00;7.75;;;;;8.25;68.48;101749.50;4998904;28;45439;-78
2021/11/22 05:59:23;;;;;;;;;16.25;12.50;;;;;8.30;68.26;101750.56;5015830;28;46665;-77
2021/11/22 06:01:48;;;;;;;;;15.00;14.00;;;;;8.33;68.26;101763.84;5015790;28;65375;-79
2021/11/22 06:04:14;;;;;;;;;21.00;17.00;;;;;8.31;68.38;101757.66;5015862;28;45397;-78
2021/11/22 06:06:39;;;;;;;;;17.00;15.50;;;;;8.44;68.15;101766.00;4996708;28;55117;-78
2021/11/22 06:09:05;;;;;;;;;18.75;16.50;;;;;8.50;68.12;101771.47;4999850;28;56454;-78
2021/11/22 06:11:30;;;;;;;;;18.00;15.75;;;;;8.54;68.32;101778.63;5016267;28;45387;-78
2021/11/22 06:13:55;;;;;;;;;20.25;17.75;;;;;8.56;68.05;101772.56;5015686;28;45494;-78
2021/11/22 06:16:21;;;;;;;;;21.25;18.75;;;;;8.65;68.14;101777.25;5018744;28;51598;-78
2021/11/22 06:18:46;;;;;;;;;20.00;16.00;;;;;8.68;67.91;101786.97;5035797;28;61375;-78
2021/11/22 06:21:12;;;;;;;;;20.50;17.00;;;;;8.68;67.93;101779.09;5035892;28;45358;-78
2021/11/22 06:23:37;;;;;;;;;16.25;15.00;;;;;8.73;67.88;101788.03;5035272;28;45884;-77
2021/11/22 06:26:02;;;;;;;;;20.25;16.75;;;;;8.76;67.77;101801.31;5035083;28;56767;-77
2021/11/22 06:28:28;;;;;;;;;28.50;19.25;;;;;8.78;67.69;101810.16;5034616;28;66163;-78
2021/11/22 06:30:53;;;;;;;;;25.25;18.75;;;;;8.78;67.79;101810.16;5033128;28;63331;-79
2021/11/22 06:33:18;;;;;;;;;17.00;14.25;;;;;8.82;67.57;101815.59;5028473;28;45477;-78
2021/11/22 06:35:44;;;;;;;;;17.50;17.00;;;;;8.83;67.31;101824.38;5020532;28;45505;-79
2021/11/22 06:38:09;;;;;;;;;21.25;16.25;;;;;8.77;67.45;101822.44;5018765;28;48341;-81
2021/11/22 06:40:35;;;;;;;;;24.00;18.50;;;;;8.83;67.35;101832.28;5016971;28;45308;-79
2021/11/22 06:43:00;;;;;;;;;21.75;17.75;;;;;8.82;67.48;101828.75;5017660;28;45823;-81
2021/11/22 06:45:27;;;;;;;;;22.75;17.00;;;;;8.77;67.45;101819.78;5009363;28;45661;-81
2021/11/22 06:47:52;;;;;;;;;18.00;16.50;;;;;8.83;67.29;101850.72;5016668;28;46078;-80
2021/11/22 06:50:18;;;;;;;;;17.00;13.75;;;;;8.81;67.13;101845.41;5014996;28;46205;-81
2021/11/22 06:52:44;;;;;;;;;18.75;16.00;;;;;8.82;67.05;101857.72;5034198;28;47073;-81
2021/11/22 06:55:09;;;;;;;;;17.00;16.00;;;;;8.81;67.21;101855.94;5015334;28;47562;-82
2021/11/22 06:57:35;;;;;;;;;19.75;14.75;;;;;8.85;67.13;101859.56;5016729;28;46417;-77
2021/11/22 07:00:00;;;;;;;;;21.00;12.25;;;;;8.88;66.95;101859.66;5034466;28;45492;-77
2021/11/22 07:02:26;;;;;;;;;13.75;10.75;;;;;8.87;67.08;101861.41;5034421;28;56351;-79
2021/11/22 07:04:51;;;;;;;;;15.25;14.75;;;;;8.86;67.16;101867.53;5037413;28;45462;-79
2021/11/22 07:07:16;;;;;;;;;17.50;14.25;;;;;8.96;67.46;101873.13;5037299;28;47607;-78
2021/11/22 07:09:42;;;;;;;;;17.50;16.25;;;;;8.99;67.10;101876.72;5030818;28;52829;-79
2021/11/22 07:12:08;;;;;;;;;15.25;11.00;;;;;9.04;67.02;101884.78;5034481;28;45206;-79
2021/11/22 07:14:35;;;;;;;;;17.00;11.75;;;;;9.04;66.83;101882.16;5016444;28;45657;-79
2021/11/22 07:17:01;;;;;;;;;13.25;11.50;;;;;9.04;67.17;101887.44;5033802;28;47445;-79
2021/11/22 07:19:26;;;;;;;;;17.25;11.75;;;;;9.08;66.99;101894.59;5026435;28;58968;-78
2021/11/22 07:21:53;;;;;;;;;21.50;14.50;;;;;9.09;66.99;101892.00;5032901;28;45435;-78
2021/11/22 07:24:18;;;;;;;;;16.75;13.50;;;;;9.11;66.45;101894.72;5031685;28;45650;-79
2021/11/22 07:26:43;;;;;;;;;13.50;13.00;;;;;9.11;67.07;101900.88;5031388;28;46009;-79
2021/11/22 07:29:09;;;;;;;;;13.75;11.50;;;;;9.12;66.84;101902.66;5031980;28;61184;-80
2021/11/22 07:31:35;;;;;;;;;19.75;13.00;;;;;9.14;67.05;101908.88;5018434;28;45521;-79
2021/11/22 07:34:00;;;;;;;;;12.25;12.25;;;;;9.12;66.93;101909.69;5014702;28;45616;-79
2021/11/22 07:36:26;;;;;;;;;15.00;13.75;;;;;9.12;66.40;101901.78;5000761;28;58817;-78
2021/11/22 07:38:51;;;;;;;;;17.50;13.00;;;;;9.14;66.91;101913.25;5017918;28;62997;-79
2021/11/22 07:41:16;;;;;;;;;18.25;11.50;;;;;9.17;66.62;101926.53;5001387;28;53527;-78
2021/11/22 07:43:42;;;;;;;;;16.50;12.50;;;;;9.20;66.61;101929.25;5020250;28;45363;-78
2021/11/22 07:46:07;;;;;;;;;14.50;13.50;;;;;9.24;66.33;101939.06;5017180;28;59254;-76
2021/11/22 07:48:33;;;;;;;;;16.25;12.25;;;;;9.27;66.37;101946.16;5041615;28;58562;-78
2021/11/22 07:50:58;;;;;;;;;14.50;11.50;;;;;9.32;66.37;101956.06;5002611;28;45382;-77
2021/11/22 07:53:24;;;;;;;;;11.00;11.00;;;;;9.32;66.04;101953.41;5036769;28;45770;-78
2021/11/22 07:55:49;;;;;;;;;16.00;12.25;;;;;9.33;66.48;101951.69;5001628;28;47027;-78
2021/11/22 07:58:15;;;;;;;;;16.75;11.00;;;;;9.39;66.30;101959.78;5003961;28;60895;-77
2021/11/22 08:00:40;;;;;;;;;13.50;13.00;;;;;9.41;66.10;101966.88;5035320;28;45524;-77
2021/11/22 08:03:06;;;;;;;;;15.00;12.25;;;;;9.44;66.43;101967.00;5039160;28;45617;-78
2021/11/22 08:05:32;;;;;;;;;14.00;12.00;;;;;9.45;66.13;101960.88;5019903;28;48477;-77
2021/11/22 08:07:58;;;;;;;;;15.75;10.75;;;;;9.46;66.00;101972.31;5036219;28;45263;-78
2021/11/22 08:10:28;;;;;;;;;9.00;8.00;;;;;9.44;65.88;101967.00;5020725;28;45529;-79
2021/11/22 08:13:04;;;;;;;;;17.75;11.00;;;;;9.52;65.86;101972.53;5018886;28;45533;-77
2021/11/22 08:15:31;;;;;;;;;19.75;13.00;;;;;9.53;65.81;101973.41;5037046;28;47448;-77
2021/11/22 08:17:57;;;;;;;;;14.75;11.75;;;;;9.56;65.86;101971.78;5018749;28;45646;-78
2021/11/22 08:20:23;;;;;;;;;17.50;11.25;;;;;9.57;65.77;101972.69;5036425;28;45291;-77
2021/11/22 08:22:49;;;;;;;;;13.25;11.25;;;;;9.62;65.70;101976.38;5019354;28;45565;-79
2021/11/22 08:25:15;;;;;;;;;12.75;9.00;;;;;9.60;65.52;101970.16;5036744;28;46431;-80
2021/11/22 08:27:40;;;;;;;;;12.67;12.67;;;;;9.66;65.22;101984.44;5036319;28;45623;-79
2021/11/22 08:30:08;;;;;;;;;10.25;10.25;;;;;9.63;65.06;101975.50;5019075;28;45492;-78
2021/11/22 08:32:33;;;;;;;;;12.25;9.00;;;;;9.67;65.35;101977.41;5018853;28;45537;-79
2021/11/22 08:34:59;;;;;;;;;10.00;10.00;;;;;9.69;65.37;101975.72;5017335;28;45508;-79
2021/11/22 08:37:25;;;;;;;;;10.50;7.75;;;;;9.78;65.31;101983.94;5018299;28;45544;-78
2021/11/22 08:39:50;;;;;;;;;17.33;9.67;;;;;9.80;64.96;101982.25;5002313;28;45333;-77
2021/11/22 08:42:15;;;;;;;;;9.33;9.00;;;;;9.84;64.55;101989.41;5034093;28;57083;-78
2021/11/22 08:44:41;;;;;;;;;10.25;8.50;;;;;9.87;64.69;101983.34;5036110;28;46653;-77
2021/11/22 08:47:06;;;;;;;;;11.50;8.75;;;;;9.78;64.58;101975.13;5017790;28;45445;-78
2021/11/22 08:49:32;;;;;;;;;12.75;9.25;;;;;9.91;64.21;101999.34;5035248;28;46121;-79
2021/11/22 08:51:58;;;;;;;;;12.25;9.25;;;;;9.94;64.62;102002.03;4998933;28;46454;-81
2021/11/22 08:54:23;;;;;;;;;9.50;8.00;;;;;9.95;64.02;102001.19;5033448;28;46555;-78
2021/11/22 08:56:49;;;;;;;;;15.50;9.50;;;;;9.94;63.87;102007.31;5035422;28;45497;-79
2021/11/22 08:59:14;;;;;;;;;7.00;7.00;;;;;9.90;63.76;102009.81;5017681;28;45551;-78
2021/11/22 09:01:40;;;;;;;;;9.75;8.00;;;;;9.96;63.91;102010.94;5018778;28;45587;-79
2021/11/22 09:04:05;;;;;;;;;9.33;8.00;;;;;9.96;63.40;102016.22;5035437;28;46213;-77
2021/11/22 09:06:33;;;;;;;;;7.33;7.00;;;;;9.90;63.71;102000.16;5034537;28;54059;-77
2021/11/22 09:08:58;;;;;;;;;12.00;8.33;;;;;9.97;63.81;102014.47;4985999;28;45602;-77
2021/11/22 09:11:23;;;;;;;;;9.00;6.67;;;;;10.03;63.35;102021.69;5035074;28;47151;-78
2021/11/22 09:13:49;;;;;;;;;10.00;7.67;;;;;10.08;63.64;102039.44;5035420;28;65265;-78
2021/11/22 09:16:14;;;;;;;;;8.67;7.00;;;;;10.10;62.90;102031.56;5033678;28;45148;-78
2021/11/22 09:18:40;;;;;;;;;10.33;7.00;;;;;10.08;63.02;102023.63;5017587;28;45396;-78
2021/11/22 09:21:05;;;;;;;;;7.75;7.25;;;;;10.12;62.56;102035.16;5022569;28;49922;-79
2021/11/22 09:23:31;;;;;;;;;8.00;7.00;;;;;10.05;62.61;102033.16;5021836;28;47303;-79
2021/11/22 09:25:58;;;;;;;;;9.00;7.67;;;;;9.95;62.28;102040.78;5046189;28;45621;-80
2021/11/22 09:28:23;;;;;;;;;8.00;8.00;;;;;9.87;62.63;102034.38;5022038;28;45524;-80
2021/11/22 09:30:48;;;;;;;;;9.00;7.00;;;;;9.82;62.51;102045.59;5035713;28;46571;-78
2021/11/22 09:33:14;;;;;;;;;6.50;6.50;;;;;9.73;62.59;102043.53;5016439;28;59070;-79
2021/11/22 09:35:40;;;;;;;;;6.00;6.00;;;;;9.76;62.63;102050.69;5017431;28;56890;-77
2021/11/22 09:38:05;;;;;;;;;9.00;7.50;;;;;9.76;62.50;102058.59;5036358;28;45505;-78
2021/11/22 09:40:34;;;;;;;;;8.00;6.67;;;;;9.71;62.98;102050.53;4984898;28;45415;-78
2021/11/22 09:43:00;;;;;;;;;11.00;8.00;;;;;9.71;62.47;102043.50;5017133;28;46650;-79
2021/11/22 09:45:27;;;;;;;;;9.67;7.00;;;;;9.73;62.50;102059.38;5034063;28;45278;-81
2021/11/22 09:47:57;;;;;;;;;8.00;8.00;;;;;9.71;62.66;102061.97;5018193;28;45532;-79
2021/11/22 09:50:22;;;;;;;;;6.67;6.67;;;;;9.77;62.83;102068.28;5033973;28;45697;-79
2021/11/22 09:52:47;;;;;;;;;6.33;6.00;;;;;9.77;62.60;102063.91;5033614;28;46559;-80
2021/11/22 09:55:13;;;;;;;;;13.00;7.33;;;;;9.75;62.73;102057.69;5034601;28;45479;-79
2021/11/22 09:57:39;;;;;;;;;9.00;6.00;;;;;9.82;62.63;102078.16;5035309;28;46459;-79
2021/11/22 10:00:10;;;;;;;;;12.00;8.00;;;;;9.81;62.28;102080.75;5033950;28;47054;-79
2021/11/22 10:02:51;;;;;;;;;9.67;7.00;;;;;9.77;61.57;102081.47;5033963;28;46416;-79
2021/11/22 10:05:20;;;;;;;;;10.25;8.25;;;;;9.71;61.95;102069.88;5034767;28;45515;-79
2021/11/22 10:08:17;;;;;;;;;7.00;3.00;;;;;9.59;62.10;102055.38;5034906;28;45391;-80
2021/11/22 10:10:49;;;;;;;;;4.67;4.67;;;;;9.66;61.70;102078.47;5035158;28;45471;-77
2021/11/22 10:13:40;;;;;;;;;6.00;6.00;;;;;9.76;61.73;102082.34;5034475;28;47481;-79
2021/11/22 10:16:11;;;;;;;;;4.00;4.00;;;;;9.78;61.81;102089.44;5033240;28;46317;-77
2021/11/22 10:18:41;;;;;;;;;8.00;6.33;;;;;9.81;61.43;102097.47;5014269;28;45493;-78
2021/11/22 10:21:08;;;;;;;;;6.67;4.67;;;;;9.87;61.89;102097.69;5014058;28;45596;-79
2021/11/22 10:23:44;;;;;;;;;8.00;7.00;;;;;9.92;62.05;102088.19;4997307;28;45930;-78
2021/11/22 10:26:11;;;;;;;;;6.33;6.33;;;;;10.01;62.19;102097.22;4992503;28;45544;-80
2021/11/22 10:28:47;;;;;;;;;9.00;7.00;;;;;10.05;61.86;102086.84;5014595;28;45571;-82
2021/11/22 10:31:21;;;;;;;;;6.33;6.33;;;;;10.16;61.58;102101.28;4997729;28;45454;-79
2021/11/22 10:33:48;;;;;;;;;7.67;7.00;;;;;10.22;61.60;102104.13;5015195;28;47231;-80
2021/11/22 10:36:15;;;;;;;;;7.67;3.67;;;;;10.23;61.19;102084.84;5011585;28;45550;-81
2021/11/22 10:38:42;;;;;;;;;8.33;7.67;;;;;10.34;61.41;102098.41;4997902;28;45454;-84
2021/11/22 10:41:16;;;;;;;;;8.00;8.00;;;;;10.41;60.70;102110.03;4997191;28;45553;-80
2021/11/22 10:43:50;;;;;;;;;8.00;7.00;;;;;10.45;60.94;102115.47;5014945;28;46758;-79
2021/11/22 10:46:17;;;;;;;;;8.67;7.00;;;;;10.50;61.15;102105.06;5013668;28;45575;-79
2021/11/22 10:48:49;;;;;;;;;9.00;6.33;;;;;10.57;60.94;102114.06;4997173;28;45536;-80
2021/11/22 10:51:28;;;;;;;;;8.33;6.67;;;;;10.57;60.53;102112.31;5014863;28;45363;-80
2021/11/22 10:54:03;;;;;;;;;7.33;6.33;;;;;10.64;60.02;102106.38;5013054;28;46712;-79
2021/11/22 10:56:38;;;;;;;;;7.67;7.00;;;;;10.68;60.40;102121.47;5016959;28;45528;-80
2021/11/22 10:59:06;;;;;;;;;7.00;4.33;;;;;10.73;60.47;102116.34;4998088;28;45541;-81
2021/11/22 11:01:48;;;;;;;;;7.00;6.67;;;;;10.80;59.66;102120.06;4995286;28;45442;-78
2021/11/22 11:04:20;;;;;;;;;12.00;8.00;;;;;10.84;60.03;102127.22;5009962;28;46391;-79
2021/11/22 11:06:58;;;;;;;;;8.33;7.67;;;;;10.86;59.91;102118.50;5018235;28;45276;-79
2021/11/22 11:09:29;;;;;;;;;10.00;8.00;;;;;10.96;59.33;102122.31;5013078;28;45524;-79
2021/11/22 11:12:00;;;;;;;;;7.67;7.67;;;;;10.97;59.45;102122.38;5017499;28;45662;-79
2021/11/22 11:14:26;;;;;;;;;7.67;7.00;;;;;10.98;59.40;102120.63;5000161;28;46714;-78
2021/11/22 11:16:53;;;;;;;;;22.50;16.50;;;;;10.94;58.28;102121.38;5023189;28;45680;-78
2021/11/22 11:19:19;;;;;;;;;14.00;8.00;;;;;10.88;58.38;102122.09;5016037;28;45491;-78
2021/11/22 11:21:47;;;;;;;;;15.67;13.00;;;;;10.80;59.05;102110.38;5041475;28;45648;-78
2021/11/22 11:24:13;;;;;;;;;44.00;37.25;;;;;10.79;58.78;102111.25;5003385;28;47411;-78
2021/11/22 11:26:39;;;;;;;;;57.75;46.00;;;;;10.80;58.90;102114.78;5036827;28;45496;-78
2021/11/22 11:29:05;;;;;;;;;21.00;16.50;;;;;10.70;58.96;102103.91;5036525;28;45569;-78